TimeCDT,TemperatureF,Dew PointF,Humidity,Sea Level PressureIn,VisibilityMPH,Wind Direction,Wind SpeedMPH,Gust SpeedMPH,PrecipitationIn,Events,Conditions,WindDirDegrees,DateUTC
12:53 AM,68.0,57.0,68,29.97,10.0,SSE,5.8,-,N/A,,Clear,150,2013-10-09 05:53:00
1:53 AM,64.9,57.0,75,29.96,10.0,SSE,4.6,-,N/A,,Clear,150,2013-10-09 06:53:00
2:53 AM,63.0,57.0,81,29.96,10.0,SE,4.6,-,N/A,,Clear,140,2013-10-09 07:53:00
3:53 AM,61.0,57.0,87,29.96,10.0,ESE,3.5,-,N/A,,Clear,120,2013-10-09 08:53:00
4:53 AM,62.1,57.0,84,29.96,10.0,ESE,5.8,-,N/A,,Clear,110,2013-10-09 09:53:00
5:53 AM,61.0,57.0,87,29.96,10.0,ESE,3.5,-,N/A,,Clear,110,2013-10-09 10:53:00
6:53 AM,60.1,57.0,90,29.97,10.0,Calm,Calm,-,N/A,,Clear,0,2013-10-09 11:53:00
7:53 AM,59.0,57.0,93,29.99,10.0,Calm,Calm,-,N/A,,Clear,0,2013-10-09 12:53:00
8:53 AM,66.0,59.0,78,30.01,9.0,ESE,5.8,-,N/A,,Clear,110,2013-10-09 13:53:00
9:53 AM,73.0,60.1,64,30.02,10.0,SSE,9.2,-,N/A,,Clear,160,2013-10-09 14:53:00
10:53 AM,77.0,61.0,58,30.03,10.0,SSE,8.1,17.3,N/A,,Clear,150,2013-10-09 15:53:00
11:53 AM,80.1,59.0,48,30.02,10.0,SE,9.2,21.9,N/A,,Clear,140,2013-10-09 16:53:00
12:53 PM,82.9,59.0,44,30.00,10.0,South,12.7,18.4,N/A,,Clear,170,2013-10-09 17:53:00
1:53 PM,86.0,55.0,35,29.97,10.0,SSE,10.4,19.6,N/A,,Clear,160,2013-10-09 18:53:00
2:53 PM,87.1,55.0,33,29.94,10.0,South,10.4,19.6,N/A,,Clear,180,2013-10-09 19:53:00
3:53 PM,88.0,53.1,30,29.92,10.0,ESE,10.4,19.6,N/A,,Clear,120,2013-10-09 20:53:00
4:53 PM,89.1,53.1,29,29.90,10.0,SSE,9.2,18.4,N/A,,Unknown,150,2013-10-09 21:53:00
5:53 PM,87.1,55.0,33,29.89,10.0,SE,13.8,21.9,N/A,,Clear,140,2013-10-09 22:53:00
6:53 PM,84.0,57.0,40,29.90,10.0,ESE,11.5,-,N/A,,Clear,110,2013-10-09 23:53:00
7:53 PM,80.1,57.9,47,29.91,10.0,ESE,5.8,-,N/A,,Clear,110,2013-10-10 00:53:00
8:53 PM,78.1,57.9,50,29.93,10.0,ESE,6.9,-,N/A,,Clear,120,2013-10-10 01:53:00
9:53 PM,75.9,61.0,60,29.95,10.0,ESE,6.9,-,N/A,,Unknown,120,2013-10-10 02:53:00
10:53 PM,73.9,62.1,66,29.97,10.0,SE,9.2,-,N/A,,Clear,130,2013-10-10 03:53:00
11:53 PM,73.0,62.1,68,29.98,10.0,SE,9.2,-,N/A,,Clear,130,2013-10-10 04:53:00